createdAt,value
2023-01-10T00:00:25.196Z,6.10
2023-01-10T00:05:31.105Z,5.43
2023-01-10T00:10:36.875Z,7.23
2023-01-10T00:15:42.588Z,7.47
2023-01-10T00:20:52.259Z,5.30
2023-01-10T00:25:57.713Z,6.37
2023-01-10T00:31:05.207Z,6.47
2023-01-10T00:36:11.821Z,6.37
2023-01-10T00:41:35.807Z,5.23
2023-01-10T00:46:41.272Z,7.47
2023-01-10T00:51:47.366Z,6.90
2023-01-10T00:56:52.885Z,6.23
2023-01-10T01:01:58.427Z,5.67
2023-01-10T01:07:04.429Z,4.70
2023-01-10T01:12:09.985Z,4.03
2023-01-10T01:17:15.883Z,4.03
2023-01-10T01:22:21.497Z,4.23
2023-01-10T01:27:26.875Z,5.27
2023-01-10T01:32:32.250Z,4.83
2023-01-10T01:37:37.783Z,4.03
2023-01-10T01:42:44.396Z,7.20
2023-01-10T01:48:10.993Z,5.33
2023-01-10T01:53:25.116Z,3.77
2023-01-10T01:58:33.546Z,5.33
2023-01-10T02:03:40.224Z,6.40
2023-01-10T02:08:50.392Z,5.67
2023-01-10T02:13:58.159Z,5.70
2023-01-10T02:19:05.459Z,5.17
2023-01-10T02:24:47.503Z,4.10
2023-01-10T02:30:28.991Z,4.43
2023-01-10T02:35:43.497Z,5.93
2023-01-10T02:40:54.758Z,6.63
2023-01-10T02:46:06.263Z,7.33
2023-01-10T02:51:17.599Z,7.83
2023-01-10T02:56:41.405Z,8.53
2023-01-10T03:01:52.940Z,4.43
2023-01-10T03:07:18.534Z,5.83
2023-01-10T03:12:38.728Z,6.10
2023-01-10T03:17:47.318Z,5.77
2023-01-10T03:22:56.081Z,6.73
2023-01-10T03:28:10.337Z,6.13
2023-01-10T03:33:18.607Z,6.60
2023-01-10T03:38:32.837Z,5.77
2023-01-10T03:44:05.031Z,6.90
2023-01-10T03:49:12.619Z,6.03
2023-01-10T03:54:19.120Z,6.87
2023-01-10T03:59:27.793Z,6.33
2023-01-10T04:04:33.190Z,7.17
2023-01-10T04:09:38.851Z,7.23
2023-01-10T04:14:46.019Z,7.43
2023-01-10T04:19:51.548Z,8.73
2023-01-10T04:24:56.982Z,9.50
2023-01-10T04:30:02.458Z,7.87
2023-01-10T04:35:09.138Z,8.83
2023-01-10T04:40:16.607Z,8.60
2023-01-10T04:45:22.195Z,9.80
2023-01-10T04:50:28.586Z,11.30
2023-01-10T04:55:35.278Z,7.53
2023-01-10T05:00:41.271Z,8.07
2023-01-10T05:05:47.046Z,7.90
2023-01-10T05:10:52.442Z,8.83
2023-01-10T05:15:58.642Z,12.50
2023-01-10T05:21:07.340Z,10.47
2023-01-10T05:26:18.718Z,10.67
2023-01-10T05:31:24.290Z,12.03
2023-01-10T05:36:29.835Z,10.70
2023-01-10T05:41:35.364Z,12.33
2023-01-10T05:46:40.748Z,14.07
2023-01-10T05:51:46.140Z,10.93
2023-01-10T05:56:51.529Z,10.67
2023-01-10T06:01:57.314Z,12.30
2023-01-10T06:07:02.793Z,10.63
2023-01-10T06:12:08.351Z,12.93
2023-01-10T06:17:14.137Z,11.67
2023-01-10T06:22:19.972Z,13.33
2023-01-10T06:27:25.527Z,13.57
2023-01-10T06:32:30.986Z,16.00
2023-01-10T06:37:36.542Z,13.67
2023-01-10T06:42:42.380Z,17.00
2023-01-10T06:47:47.936Z,13.30
2023-01-10T06:52:58.819Z,15.63
2023-01-10T06:58:05.256Z,16.20
2023-01-10T07:03:11.291Z,13.50
2023-01-10T07:08:16.928Z,14.33
2023-01-10T07:13:22.387Z,12.63
2023-01-10T07:18:27.874Z,13.40
2023-01-10T07:23:33.977Z,13.97
2023-01-10T07:28:40.031Z,14.37
2023-01-10T07:33:45.889Z,21.47
2023-01-10T07:38:51.342Z,15.87
2023-01-10T07:43:56.793Z,15.17
2023-01-10T07:49:02.290Z,16.60
2023-01-10T07:54:07.864Z,15.47
2023-01-10T07:59:13.315Z,15.90
2023-01-10T08:04:18.783Z,15.30
2023-01-10T08:09:24.245Z,15.10
2023-01-10T08:14:29.763Z,15.67
2023-01-10T08:19:35.349Z,14.13
2023-01-10T08:24:40.739Z,13.67
2023-01-10T08:29:46.433Z,16.87
2023-01-10T08:34:51.842Z,15.27
2023-01-10T08:39:57.223Z,13.53
2023-01-10T08:45:02.757Z,15.17
2023-01-10T08:50:09.155Z,17.23
2023-01-10T08:55:14.682Z,15.00
2023-01-10T09:00:20.967Z,13.37
2023-01-10T09:05:28.140Z,13.60
2023-01-10T09:10:34.246Z,15.73
2023-01-10T09:15:39.981Z,15.80
2023-01-10T09:20:46.847Z,14.80
2023-01-10T09:25:55.860Z,15.80
2023-01-10T09:31:03.320Z,11.57
2023-01-10T09:36:10.383Z,15.97
2023-01-10T09:41:19.108Z,13.60
2023-01-10T09:46:53.210Z,15.53
2023-01-10T09:51:59.915Z,18.03
2023-01-10T09:57:05.958Z,13.73
2023-01-10T10:02:26.042Z,15.00
2023-01-10T10:07:31.481Z,12.70
2023-01-10T10:12:58.247Z,16.83
2023-01-10T10:18:21.737Z,17.20
2023-01-10T10:23:38.984Z,11.00
2023-01-10T10:29:06.514Z,13.20
2023-01-10T10:34:34.834Z,12.10
2023-01-10T10:39:43.266Z,13.27
2023-01-10T10:44:57.942Z,10.67
2023-01-10T10:50:18.368Z,7.47
2023-01-10T10:55:26.870Z,7.77
2023-01-10T11:00:32.763Z,7.93
2023-01-10T11:05:44.469Z,10.30
2023-01-10T11:10:58.702Z,7.80
2023-01-10T11:16:06.783Z,6.53
2023-01-10T11:21:20.365Z,6.47
2023-01-10T11:26:32.975Z,6.80
2023-01-10T11:31:39.485Z,6.83
2023-01-10T11:37:04.823Z,5.37
2023-01-10T11:42:30.024Z,7.50
2023-01-10T11:47:41.685Z,7.67
2023-01-10T11:52:45.950Z,7.33
2023-01-10T11:57:57.268Z,6.43
2023-01-10T12:03:03.286Z,6.60
2023-01-10T12:08:10.771Z,7.13
2023-01-10T12:13:17.984Z,6.70
2023-01-10T12:18:24.637Z,7.80
2023-01-10T12:23:33.209Z,6.67
2023-01-10T12:28:40.213Z,4.57
2023-01-10T12:33:48.513Z,7.23
2023-01-10T12:39:05.972Z,6.83
2023-01-10T12:44:17.483Z,4.97
2023-01-10T12:49:28.768Z,5.27
2023-01-10T12:54:34.684Z,5.33
2023-01-10T12:59:43.189Z,8.03
2023-01-10T13:04:52.086Z,7.97
2023-01-10T13:09:57.924Z,6.07
2023-01-10T13:15:06.348Z,6.17
2023-01-10T13:20:26.883Z,6.23
2023-01-10T13:25:36.066Z,7.77
2023-01-10T13:30:42.206Z,6.90
2023-01-10T13:35:49.263Z,5.23
2023-01-10T13:41:05.981Z,7.37
2023-01-10T13:46:23.649Z,4.23
2023-01-10T13:51:29.935Z,6.00
2023-01-10T13:56:41.254Z,3.80
2023-01-10T14:02:11.338Z,6.43
2023-01-10T14:07:31.994Z,3.33
2023-01-10T14:12:42.986Z,5.90
2023-01-10T14:18:09.155Z,4.03
2023-01-10T14:23:23.731Z,5.70
2023-01-10T14:28:34.986Z,4.00
2023-01-10T14:33:43.960Z,3.67
2023-01-10T14:38:51.657Z,3.83
2023-01-10T14:44:13.870Z,4.47
2023-01-10T14:49:22.369Z,4.17
2023-01-10T14:54:29.463Z,7.30
2023-01-10T14:59:37.002Z,6.27
2023-01-10T15:04:45.465Z,5.97
2023-01-10T15:09:57.423Z,6.17
2023-01-10T15:15:14.978Z,7.10
2023-01-10T15:20:22.672Z,7.97
2023-01-10T15:25:38.831Z,5.83
2023-01-10T15:30:45.108Z,7.97
2023-01-10T15:35:50.656Z,7.30
2023-01-10T15:41:02.765Z,6.20
2023-01-10T15:46:12.961Z,8.97
2023-01-10T15:51:33.203Z,8.27
2023-01-10T15:56:53.255Z,10.53
2023-01-10T16:02:21.348Z,9.60
2023-01-10T16:07:33.211Z,7.67
2023-01-10T16:12:59.135Z,7.13
2023-01-10T16:18:04.943Z,8.43
2023-01-10T16:23:17.497Z,5.00
2023-01-10T16:28:26.712Z,7.93
2023-01-10T16:33:32.237Z,5.07
2023-01-10T16:38:37.719Z,6.07
2023-01-10T16:43:43.274Z,8.83
2023-01-10T16:48:50.186Z,5.40
2023-01-10T16:53:58.741Z,10.00
2023-01-10T16:59:07.153Z,8.63
2023-01-10T17:04:16.971Z,9.17
2023-01-10T17:09:28.670Z,7.80
2023-01-10T17:14:36.676Z,9.47
2023-01-10T17:19:42.929Z,10.30
2023-01-10T17:24:49.416Z,9.83
2023-01-10T17:29:57.336Z,11.57
2023-01-10T17:35:15.669Z,7.17
2023-01-10T17:40:22.698Z,8.47
2023-01-10T17:45:28.947Z,8.33
2023-01-10T17:51:02.430Z,10.27
2023-01-10T17:56:11.889Z,8.50
2023-01-10T18:01:25.407Z,6.77
2023-01-10T18:06:31.371Z,10.23
2023-01-10T18:11:39.081Z,7.23
2023-01-10T18:16:47.659Z,9.53
2023-01-10T18:21:53.201Z,11.30
2023-01-10T18:26:58.610Z,8.93
2023-01-10T18:32:04.163Z,7.63
2023-01-10T18:37:11.373Z,11.60
2023-01-10T18:42:17.501Z,8.83
2023-01-10T18:47:24.505Z,7.37
2023-01-10T18:52:30.232Z,7.40
2023-01-10T18:57:35.698Z,10.70
2023-01-10T19:02:41.284Z,10.13
2023-01-10T19:07:47.289Z,9.57
2023-01-10T19:12:52.821Z,9.00
2023-01-10T19:17:58.279Z,5.10
2023-01-10T19:23:03.732Z,9.63
2023-01-10T19:28:09.198Z,8.80
2023-01-10T19:33:14.712Z,7.73
2023-01-10T19:38:20.249Z,6.90
2023-01-10T19:43:26.141Z,11.17
2023-01-10T19:48:31.678Z,7.43
2023-01-10T19:53:44.496Z,10.37
2023-01-10T19:58:51.674Z,7.73
2023-01-10T20:04:02.704Z,8.60
2023-01-10T20:09:10.383Z,7.40
2023-01-10T20:14:18.958Z,11.13
2023-01-10T20:19:24.632Z,12.17
2023-01-10T20:24:30.171Z,6.70
2023-01-10T20:29:36.164Z,11.10
2023-01-10T20:34:43.775Z,11.60
2023-01-10T20:39:49.245Z,8.50
2023-01-10T20:44:54.834Z,7.70
2023-01-10T20:50:00.471Z,8.73
2023-01-10T20:55:06.694Z,8.50
2023-01-10T21:00:13.373Z,7.60
2023-01-10T21:05:18.820Z,8.57
2023-01-10T21:10:24.453Z,11.00
2023-01-10T21:15:30.139Z,6.63
2023-01-10T21:20:35.940Z,6.10
2023-01-10T21:25:41.854Z,7.33
2023-01-10T21:30:47.960Z,10.13
2023-01-10T21:36:00.590Z,4.00
2023-01-10T21:41:09.536Z,12.13
2023-01-10T21:46:15.004Z,9.33
2023-01-10T21:51:20.548Z,8.70
2023-01-10T21:56:26.190Z,4.13
2023-01-10T22:01:31.770Z,5.47
2023-01-10T22:06:37.265Z,6.50
2023-01-10T22:11:42.721Z,7.43
2023-01-10T22:16:48.173Z,5.17
2023-01-10T22:21:53.631Z,8.67
2023-01-10T22:27:00.210Z,6.50
2023-01-10T22:32:05.992Z,8.20
2023-01-10T22:37:11.444Z,7.57
2023-01-10T22:42:16.883Z,6.67
2023-01-10T22:47:22.354Z,8.00
2023-01-10T22:52:27.813Z,12.33
2023-01-10T22:57:33.369Z,7.40
2023-01-10T23:02:38.988Z,10.40
2023-01-10T23:07:44.461Z,6.40
2023-01-10T23:12:50.611Z,7.43
2023-01-10T23:17:56.281Z,4.03
2023-01-10T23:23:01.813Z,5.87
2023-01-10T23:28:07.355Z,9.33
2023-01-10T23:33:12.796Z,4.10
2023-01-10T23:38:20.322Z,5.13
2023-01-10T23:43:26.182Z,6.23
2023-01-10T23:48:31.741Z,5.43
2023-01-10T23:53:37.259Z,6.50
2023-01-10T23:58:42.830Z,3.70
